Classifiche di sempre
Migliori tempi personali validi di team tra tutti gli eventi e le stagioni. Ogni team compare una sola volta per divisione.
Cerca per nome e apri la pagina in cui è classificato questo record di divisione.
23,833 team in classifica
| Pos. | Pos. AG | Team | Nazionalità | Categoria età | TempoMiglior tempo | Distacco |
|---|---|---|---|---|---|---|
| 18626 | #2140 | Benjamin Ebbo & Fabien OlkFRA · M 40-44 · AG #2140 | FRA | M 40-44 | 1:19:47 | +31:16 |
| 18627 | #3002 | Abdihakim Ghedi & Joshua WhiteUSA · M 25-29 · AG #3002 | USA | M 25-29 | 1:19:47 | +31:16 |
| 18628 | #1085 | Yohan Losio & Emeric LOSIOFRA · M 16-24 · AG #1085 | FRA | M 16-24 | 1:19:47 | +31:16 |
| 18629 | #3003 | Rachata Bosuwan & Pavarit HongsakulTHA · M 25-29 · AG #3003 | THA | M 25-29 | 1:19:47 | +31:16 |
| 18630 | #7485 | Matthew Nissen & Chadley GordonM 30-34 · AG #7485 | -- | M 30-34 | 1:19:47 | +31:16 |
| 18631 | #2141 | RAVI KIRAN & Ashwin AgarwalIND · M 40-44 · AG #2141 | IND | M 40-44 | 1:19:47 | +31:16 |
| 18632 | #3004 | VIBOR KUMAR & Kartikey BamalIND · M 25-29 · AG #3004 | IND | M 25-29 | 1:19:47 | +31:16 |
| 18633 | #7486 | Caleb Korteweg & Landon ac92M 30-34 · AG #7486 | -- | M 30-34 | 1:19:47 | +31:16 |
| 18634 | #7487 | Alexandre Lorscheid & Anil AydinGER · M 30-34 · AG #7487 | GER | M 30-34 | 1:19:47 | +31:16 |
| 18635 | #2142 | Luuk Spauwen & Boudewijn van MensNED · M 40-44 · AG #2142 | NED | M 40-44 | 1:19:47 | +31:16 |
| 18636 | #7488 | Kostas Nastasai & Antonios FikatasGRE · M 30-34 · AG #7488 | GRE | M 30-34 | 1:19:48 | +31:17 |
| 18637 | #7489 | Jonathan Pires & Kevin AussalFRA · M 30-34 · AG #7489 | FRA | M 30-34 | 1:19:48 | +31:17 |
| 18638 | #3005 | Ryan Love & John MatusekUSA · M 25-29 · AG #3005 | USA | M 25-29 | 1:19:48 | +31:17 |
| 18639 | #7490 | Simone Brocchetto & Jacopo MaldinoITA · M 30-34 · AG #7490 | ITA | M 30-34 | 1:19:48 | +31:17 |
| 18640 | -- | Clement Kowalczuk & Romain PruvostFRA · M MU29 | FRA | M MU29 | 1:19:48 | +31:17 |
| 18641 | -- | Hugo Loucheux & Mathéo ColartFRA · M MU29 | FRA | M MU29 | 1:19:48 | +31:17 |
| 18642 | #325 | Martin Zeitz & Michael KrausGER · M 50-54 · AG #325 | GER | M 50-54 | 1:19:48 | +31:17 |
| 18643 | #2797 | Fábio Marques & Luiz MoreiraM 35-39 · AG #2797 | -- | M 35-39 | 1:19:48 | +31:17 |
| 18644 | #7491 | 思尧 张 & 颖 吴CHN · M 30-34 · AG #7491 | CHN | M 30-34 | 1:19:49 | +31:18 |
| 18645 | #7492 | 宏昊 吴 & 泽栎 许CHN · M 30-34 · AG #7492 | CHN | M 30-34 | 1:19:49 | +31:18 |
| 18646 | #2143 | Bram Hanstede & Frederik WalravenNED · M 40-44 · AG #2143 | NED | M 40-44 | 1:19:49 | +31:18 |
| 18647 | #1 | Ward Platt & Jonathan FinniganM 50-59 · AG #1 | -- | M 50-59 | 1:19:49 | +31:18 |
| 18648 | #7493 | Alessandro Moro & Filippo BardinITA · M 30-34 · AG #7493 | ITA | M 30-34 | 1:19:49 | +31:18 |
| 18649 | #3006 | Fernando Ochoa & Jose HernandezMEX · M 25-29 · AG #3006 | MEX | M 25-29 | 1:19:49 | +31:18 |
| 18650 | #54 | Michael Grieco & Timothy CarrUSA · M 55-59 · AG #54 | USA | M 55-59 | 1:19:49 | +31:18 |
Pagina 746 di 954